Time;durP1;ratioP1;P1;durP2;ratioP2;P2;SDS_P1;SDS_P2;PMS_P1;PMS_P2;Temp;Humidity;BMP_temperature;BMP_pressure;BME280_temperature;BME280_humidity;BME280_pressure;Samples;Min_cycle;Max_cycle;Signal;HPM_P1;HPM_P2
2022/12/23 00:00:19;;;;;;;3.72;1.35;;;9.90;99.90;;;;;;4944270;29;20038;-83
2022/12/23 00:02:45;;;;;;;8.30;1.13;;;9.80;99.90;;;;;;4953613;28;20035;-84
2022/12/23 00:05:11;;;;;;;5.38;1.33;;;9.90;99.90;;;;;;4946339;28;20054;-83
2022/12/23 00:07:37;;;;;;;2.45;0.98;;;9.90;99.90;;;;;;4952880;28;20042;-84
2022/12/23 00:10:04;;;;;;;3.85;1.58;;;9.90;99.90;;;;;;4946319;28;20502;-84
2022/12/23 00:15:16;;;;;;;3.85;0.82;;;9.90;99.90;;;;;;4951863;29;20414;-83
2022/12/23 00:17:44;;;;;;;1.65;0.98;;;9.90;99.90;;;;;;4931946;29;20044;-82
2022/12/23 00:20:13;;;;;;;5.43;1.48;;;9.90;99.90;;;;;;4942437;29;20043;-81
2022/12/23 00:25:43;;;;;;;2.70;1.10;;;9.90;99.90;;;;;;4956774;28;20059;-82
2022/12/23 00:28:16;;;;;;;2.30;1.60;;;9.90;99.90;;;;;;4952239;28;20042;-81
2022/12/23 00:31:03;;;;;;;3.70;1.42;;;9.90;99.90;;;;;;4948426;28;20039;-82
2022/12/23 00:33:36;;;;;;;2.58;0.93;;;9.90;99.90;;;;;;4954651;29;20027;-81
2022/12/23 00:36:13;;;;;;;3.22;1.45;;;9.90;99.90;;;;;;4947299;29;20063;-81
2022/12/23 00:44:08;;;;;;;4.72;1.48;;;9.90;99.90;;;;;;4955994;28;20094;-82
2022/12/23 00:46:37;;;;;;;2.00;1.20;;;9.90;99.90;;;;;;4948338;29;20039;-82
2022/12/23 00:51:47;;;;;;;2.90;1.85;;;10.00;99.90;;;;;;4961265;28;20039;-81
2022/12/23 00:54:14;;;;;;;4.82;1.63;;;10.00;99.90;;;;;;4955898;28;20616;-81
2022/12/23 00:56:39;;;;;;;3.70;0.85;;;10.00;99.90;;;;;;4963031;28;20039;-82
2022/12/23 00:59:05;;;;;;;0.98;0.73;;;10.00;99.90;;;;;;4955496;29;20106;-81
2022/12/23 01:07:02;;;;;;;3.88;1.23;;;10.10;99.90;;;;;;4950551;29;20147;-81
2022/12/23 01:09:28;;;;;;;5.75;1.02;;;10.10;99.90;;;;;;4961001;23;20043;-69
2022/12/23 01:11:54;;;;;;;1.75;0.90;;;10.10;99.90;;;;;;4947488;29;20046;-68
2022/12/23 01:14:20;;;;;;;2.65;1.33;;;10.10;99.90;;;;;;4947941;29;20083;-69
2022/12/23 01:16:47;;;;;;;3.03;0.68;;;10.10;99.90;;;;;;4950229;29;20044;-68
2022/12/23 01:19:12;;;;;;;2.03;0.80;;;10.10;99.90;;;;;;4944292;29;20114;-68
2022/12/23 01:21:38;;;;;;;10.38;0.85;;;10.20;99.90;;;;;;4953259;28;20502;-68
2022/12/23 01:24:05;;;;;;;1.00;0.60;;;10.20;99.90;;;;;;4947736;28;20031;-68
2022/12/23 01:26:31;;;;;;;4.45;0.75;;;10.20;99.90;;;;;;4965083;28;20023;-68
2022/12/23 01:28:57;;;;;;;7.90;1.45;;;10.20;99.90;;;;;;4947584;28;20110;-68
2022/12/23 01:31:25;;;;;;;5.93;1.20;;;10.20;99.90;;;;;;4954249;28;20058;-68
2022/12/23 01:33:52;;;;;;;5.25;0.82;;;10.20;99.90;;;;;;4962241;28;20035;-68
2022/12/23 01:36:18;;;;;;;1.17;0.60;;;10.20;99.90;;;;;;4968773;28;20095;-68
2022/12/23 01:38:44;;;;;;;1.85;0.90;;;10.20;99.90;;;;;;4958952;28;20031;-68
2022/12/23 01:44:47;;;;;;;1.38;0.50;;;10.30;99.90;;;;;;4943978;29;20039;-69
2022/12/23 01:47:25;;;;;;;0.55;0.38;;;10.30;99.90;;;;;;4948150;29;20043;-67
2022/12/23 01:50:00;;;;;;;0.95;0.63;;;10.30;99.90;;;;;;4948298;29;20082;-66
2022/12/23 01:52:26;;;;;;;5.68;1.40;;;10.40;99.90;;;;;;4964112;28;20034;-68
2022/12/23 01:54:54;;;;;;;1.02;0.50;;;10.30;99.90;;;;;;4957216;28;20032;-68
2022/12/23 01:57:20;;;;;;;3.03;1.08;;;10.40;99.90;;;;;;4948375;29;20027;-68
2022/12/23 02:05:20;;;;;;;1.95;0.52;;;10.40;99.90;;;;;;4959169;28;20138;-68
2022/12/23 02:11:02;;;;;;;1.08;0.50;;;10.40;99.90;;;;;;4950845;28;20472;-68
2022/12/23 02:16:56;;;;;;;0.45;0.35;;;10.40;99.90;;;;;;4953715;28;20411;-68
2022/12/23 02:20:10;;;;;;;1.38;0.68;;;10.40;99.90;;;;;;4946421;28;20097;-68
2022/12/23 02:23:21;;;;;;;2.50;0.32;;;10.50;99.90;;;;;;4951234;29;20046;-67
2022/12/23 02:26:21;;;;;;;3.03;0.35;;;10.50;99.90;;;;;;4935147;29;20087;-67
2022/12/23 02:29:22;;;;;;;1.45;0.52;;;10.40;99.90;;;;;;4942978;29;20046;-67
2022/12/23 02:31:58;;;;;;;0.65;0.40;;;10.40;99.90;;;;;;4893520;29;20066;-67
2022/12/23 02:34:54;;;;;;;3.70;1.10;;;10.40;99.90;;;;;;4960808;28;20043;-67
2022/12/23 02:37:50;;;;;;;1.38;0.75;;;10.40;99.90;;;;;;4966018;28;20037;-67
2022/12/23 02:40:55;;;;;;;4.32;1.00;;;10.40;99.90;;;;;;4938697;28;20086;-68
2022/12/23 02:43:46;;;;;;;1.45;0.73;;;10.30;99.90;;;;;;4949755;29;20066;-67
2022/12/23 02:46:37;;;;;;;0.15;0.15;;;10.30;99.90;;;;;;4937983;29;20094;-67
2022/12/23 02:49:10;;;;;;;4.20;0.98;;;10.40;99.90;;;;;;4947511;29;20034;-68
2022/12/23 02:51:43;;;;;;;1.10;0.68;;;10.40;99.90;;;;;;4962859;28;20035;-67
2022/12/23 02:54:17;;;;;;;1.73;1.25;;;10.40;99.90;;;;;;4959626;28;20031;-67
2022/12/23 02:56:49;;;;;;;0.63;0.60;;;10.40;99.90;;;;;;4963059;28;20118;-68
2022/12/23 02:59:21;;;;;;;6.45;1.55;;;10.40;99.90;;;;;;4960019;28;20027;-67
2022/12/23 03:01:48;;;;;;;0.85;0.55;;;10.40;99.90;;;;;;4950865;29;20063;-67
2022/12/23 03:04:14;;;;;;;2.13;1.58;;;10.30;99.90;;;;;;4960755;28;20039;-68
2022/12/23 03:06:44;;;;;;;5.80;0.90;;;10.30;99.90;;;;;;4950612;29;20049;-68
2022/12/23 03:09:40;;;;;;;1.17;0.60;;;10.30;99.90;;;;;;4928347;29;20050;-68
2022/12/23 03:12:24;;;;;;;0.40;0.28;;;10.40;99.90;;;;;;4945757;28;20569;-68
2022/12/23 03:15:04;;;;;;;0.30;0.30;;;10.40;99.90;;;;;;4946335;29;20035;-68
2022/12/23 03:17:42;;;;;;;3.38;0.95;;;10.30;99.90;;;;;;4952702;28;20039;-68
2022/12/23 03:20:29;;;;;;;5.90;0.75;;;10.40;99.90;;;;;;4945345;28;20400;-67
2022/12/23 03:23:22;;;;;;;0.95;0.75;;;10.30;99.90;;;;;;4965434;28;20491;-67
2022/12/23 03:26:16;;;;;;;7.22;0.80;;;10.30;99.90;;;;;;4958755;28;20035;-68
2022/12/23 03:29:10;;;;;;;2.00;0.75;;;10.40;99.90;;;;;;4949426;29;20035;-68
2022/12/23 03:31:38;;;;;;;1.70;0.93;;;10.40;99.90;;;;;;4950208;29;20673;-68
2022/12/23 03:34:14;;;;;;;0.52;0.38;;;10.30;99.90;;;;;;4945999;29;20027;-68
2022/12/23 03:36:57;;;;;;;1.00;0.50;;;10.40;99.90;;;;;;4943401;29;20039;-68
2022/12/23 03:39:31;;;;;;;1.60;0.50;;;10.40;99.90;;;;;;4943914;29;20039;-68
2022/12/23 03:42:10;;;;;;;1.30;0.50;;;10.40;99.90;;;;;;4966576;28;20042;-69
2022/12/23 03:44:42;;;;;;;0.68;0.57;;;10.50;99.90;;;;;;4944045;29;20036;-69
2022/12/23 03:47:43;;;;;;;6.60;1.83;;;10.60;99.90;;;;;;4952705;28;20031;-68
2022/12/23 03:50:12;;;;;;;0.80;0.60;;;10.50;99.90;;;;;;4941654;29;20034;-68
2022/12/23 03:52:45;;;;;;;0.47;0.38;;;10.50;99.90;;;;;;4938317;29;20454;-69
2022/12/23 03:55:20;;;;;;;1.33;0.90;;;10.50;99.90;;;;;;4953479;28;20062;-68
2022/12/23 03:58:05;;;;;;;1.50;0.57;;;10.40;99.90;;;;;;4941140;28;20476;-68
2022/12/23 04:00:37;;;;;;;0.90;0.50;;;10.40;99.90;;;;;;4941534;29;20058;-68
2022/12/23 04:03:25;;;;;;;0.32;0.30;;;10.60;99.90;;;;;;4947680;29;20035;-68
2022/12/23 04:05:59;;;;;;;0.40;0.30;;;10.60;99.90;;;;;;4946483;28;20094;-68
2022/12/23 04:08:47;;;;;;;0.28;0.20;;;10.70;99.90;;;;;;4949201;28;20039;-68
2022/12/23 04:11:13;;;;;;;0.22;0.22;;;10.70;99.90;;;;;;4965743;28;20055;-68
2022/12/23 04:13:39;;;;;;;0.55;0.30;;;10.80;99.90;;;;;;4940414;29;20032;-68
2022/12/23 04:16:05;;;;;;;1.55;0.30;;;11.00;99.90;;;;;;4946240;29;20098;-68
2022/12/23 04:18:32;;;;;;;0.57;0.40;;;11.10;99.90;;;;;;4944493;28;20554;-68
2022/12/23 04:20:58;;;;;;;0.68;0.22;;;11.40;99.90;;;;;;4951414;28;20143;-68
2022/12/23 04:23:24;;;;;;;0.60;0.40;;;11.50;99.90;;;;;;4958938;28;20035;-69
2022/12/23 04:25:49;;;;;;;0.25;0.20;;;11.50;99.90;;;;;;4951659;28;20122;-68
2022/12/23 04:28:17;;;;;;;0.60;0.40;;;11.60;99.90;;;;;;4946821;28;20110;-68
2022/12/23 04:30:43;;;;;;;0.32;0.30;;;11.60;99.90;;;;;;4941295;29;20028;-68
2022/12/23 04:33:11;;;;;;;1.00;0.28;;;11.50;99.90;;;;;;4945807;29;20031;-68
2022/12/23 04:35:38;;;;;;;1.23;0.40;;;11.40;99.90;;;;;;4943622;28;20107;-68
2022/12/23 04:38:03;;;;;;;0.35;0.15;;;11.40;99.90;;;;;;4941736;28;20062;-68
2022/12/23 04:40:29;;;;;;;0.20;0.20;;;11.40;99.90;;;;;;4942699;29;20067;-68
2022/12/23 04:42:55;;;;;;;0.10;0.10;;;11.40;99.90;;;;;;4950160;29;20542;-69
2022/12/23 04:45:20;;;;;;;1.08;0.35;;;11.30;99.90;;;;;;4944298;28;20035;-69
2022/12/23 04:47:46;;;;;;;0.77;0.30;;;11.20;99.90;;;;;;4951248;28;20049;-68
2022/12/23 04:50:15;;;;;;;0.25;0.20;;;11.20;99.90;;;;;;4942988;28;20035;-68
2022/12/23 04:52:42;;;;;;;0.98;0.40;;;11.20;99.90;;;;;;4946982;29;20039;-68
2022/12/23 04:55:09;;;;;;;0.70;0.30;;;11.30;99.90;;;;;;4942905;29;20054;-67
2022/12/23 04:57:35;;;;;;;1.48;0.22;;;11.30;99.90;;;;;;4964166;28;20163;-68
2022/12/23 05:00:01;;;;;;;0.05;0.05;;;11.30;99.90;;;;;;4944319;28;20110;-68
2022/12/23 05:02:26;;;;;;;0.55;0.40;;;11.40;99.90;;;;;;4939259;28;20403;-68
2022/12/23 05:04:52;;;;;;;0.47;0.30;;;11.50;99.90;;;;;;4944187;28;20035;-68
2022/12/23 05:07:17;;;;;;;0.17;0.10;;;11.50;99.90;;;;;;4951183;28;20040;-68
2022/12/23 05:09:43;;;;;;;0.10;0.10;;;11.40;99.90;;;;;;4943892;28;20039;-68
2022/12/23 05:12:09;;;;;;;0.08;0.08;;;11.40;99.90;;;;;;4951055;28;20034;-68
2022/12/23 05:14:34;;;;;;;0.22;0.10;;;11.40;99.90;;;;;;4942186;29;20067;-69
2022/12/23 05:17:00;;;;;;;0.10;0.10;;;11.30;99.90;;;;;;4934357;29;20472;-68
2022/12/23 05:19:26;;;;;;;0.13;0.10;;;11.30;99.90;;;;;;4947399;29;20369;-68
2022/12/23 05:21:51;;;;;;;0.40;0.20;;;11.40;99.90;;;;;;4955514;28;20039;-68
2022/12/23 05:24:17;;;;;;;0.10;0.10;;;11.40;99.90;;;;;;4952628;29;20114;-68
2022/12/23 05:26:47;;;;;;;0.38;0.10;;;11.30;99.90;;;;;;4947692;28;20436;-68
2022/12/23 05:29:14;;;;;;;0.00;0.00;;;11.30;99.90;;;;;;4970235;28;20028;-68
2022/12/23 05:31:40;;;;;;;0.15;0.10;;;11.40;99.90;;;;;;4951892;29;20036;-68
2022/12/23 05:34:05;;;;;;;0.45;0.17;;;11.40;99.90;;;;;;4950741;29;20027;-68
2022/12/23 05:36:31;;;;;;;1.15;0.17;;;11.30;99.90;;;;;;4952811;28;20196;-68
2022/12/23 05:38:57;;;;;;;0.98;0.32;;;11.30;99.90;;;;;;4949196;29;20031;-68
2022/12/23 05:41:22;;;;;;;0.38;0.20;;;11.30;99.90;;;;;;4953600;29;20427;-68
2022/12/23 05:43:48;;;;;;;2.08;1.15;;;11.30;99.90;;;;;;4947146;29;20059;-68
2022/12/23 05:46:17;;;;;;;1.50;0.68;;;11.30;99.90;;;;;;4954639;28;20059;-68
2022/12/23 05:48:42;;;;;;;0.73;0.22;;;11.30;99.90;;;;;;4947312;29;20384;-68
2022/12/23 05:51:08;;;;;;;0.08;0.08;;;11.30;99.90;;;;;;4952926;29;20042;-68
2022/12/23 05:53:34;;;;;;;0.45;0.40;;;11.40;99.90;;;;;;4961978;28;20399;-68
2022/12/23 05:56:04;;;;;;;0.15;0.10;;;11.40;99.90;;;;;;4954540;28;20039;-69
2022/12/23 05:58:30;;;;;;;1.30;0.37;;;11.30;99.90;;;;;;4955348;28;20047;-69
2022/12/23 06:00:55;;;;;;;0.57;0.28;;;11.30;99.90;;;;;;4946610;28;20487;-68
2022/12/23 06:03:21;;;;;;;0.63;0.38;;;11.30;99.90;;;;;;4954027;28;20114;-67
2022/12/23 06:05:51;;;;;;;0.20;0.20;;;11.30;99.90;;;;;;4946600;28;20082;-67
2022/12/23 06:08:17;;;;;;;0.00;0.00;;;11.30;99.90;;;;;;4964332;28;20495;-67
2022/12/23 06:10:43;;;;;;;0.22;0.10;;;11.20;99.90;;;;;;4943529;29;20062;-68
2022/12/23 06:13:09;;;;;;;2.42;0.20;;;11.20;99.90;;;;;;4938141;29;20116;-67
2022/12/23 06:15:34;;;;;;;0.10;0.10;;;11.10;99.90;;;;;;4951970;29;20027;-68
2022/12/23 06:18:00;;;;;;;0.15;0.15;;;11.10;99.90;;;;;;4938613;29;20074;-67
2022/12/23 06:20:26;;;;;;;1.75;0.30;;;11.10;99.90;;;;;;4950783;29;20035;-67
2022/12/23 06:22:51;;;;;;;0.10;0.10;;;11.10;99.90;;;;;;4952815;29;20106;-67
2022/12/23 06:25:17;;;;;;;0.38;0.28;;;11.10;99.90;;;;;;4947092;28;20166;-67
2022/12/23 06:27:43;;;;;;;0.25;0.10;;;11.10;99.90;;;;;;4940686;29;20099;-68
2022/12/23 06:30:10;;;;;;;0.00;0.00;;;11.10;99.90;;;;;;4934904;29;20552;-68
2022/12/23 06:32:35;;;;;;;0.80;0.30;;;11.10;99.90;;;;;;4949795;29;20059;-67
2022/12/23 06:35:01;;;;;;;1.48;0.47;;;11.10;99.90;;;;;;4946219;29;20122;-67
2022/12/23 06:37:27;;;;;;;0.08;0.08;;;11.00;99.90;;;;;;4942350;29;20039;-67
2022/12/23 06:39:52;;;;;;;1.15;0.45;;;11.00;99.90;;;;;;4946578;29;20039;-67
2022/12/23 06:42:18;;;;;;;0.93;0.32;;;11.10;99.90;;;;;;4943394;29;20031;-67
2022/12/23 06:44:43;;;;;;;2.13;0.20;;;11.10;99.90;;;;;;4944406;29;20072;-67
2022/12/23 06:47:09;;;;;;;1.33;0.40;;;11.00;99.90;;;;;;4946466;29;20082;-67
2022/12/23 06:49:35;;;;;;;0.75;0.28;;;11.10;99.90;;;;;;4943437;29;20373;-67
2022/12/23 06:52:01;;;;;;;1.42;0.63;;;11.10;99.90;;;;;;4941018;29;20035;-68
2022/12/23 06:54:26;;;;;;;1.55;0.90;;;11.10;99.90;;;;;;4943233;28;20061;-68
2022/12/23 06:56:52;;;;;;;2.75;0.80;;;11.10;99.90;;;;;;4942426;28;20144;-69
2022/12/23 06:59:18;;;;;;;1.10;0.63;;;11.10;99.90;;;;;;4942821;29;20035;-67
2022/12/23 07:01:43;;;;;;;6.57;2.72;;;11.00;99.90;;;;;;4942902;29;20668;-68
2022/12/23 07:04:09;;;;;;;2.10;1.05;;;11.00;99.90;;;;;;4944392;29;20038;-68
2022/12/23 07:06:35;;;;;;;3.13;1.00;;;11.00;99.90;;;;;;4934285;29;20032;-67
2022/12/23 07:09:00;;;;;;;1.77;0.80;;;10.90;99.90;;;;;;4943852;29;20032;-67
2022/12/23 07:11:26;;;;;;;2.08;1.00;;;10.90;99.90;;;;;;4936015;29;20114;-68
2022/12/23 07:13:52;;;;;;;3.10;1.10;;;10.90;99.90;;;;;;4940841;29;20027;-68
2022/12/23 07:16:18;;;;;;;3.92;1.58;;;10.80;99.90;;;;;;4935748;29;20829;-66
2022/12/23 07:18:43;;;;;;;2.45;1.58;;;10.90;99.90;;;;;;4951851;28;20074;-68
2022/12/23 07:21:09;;;;;;;2.40;1.30;;;10.80;99.90;;;;;;4937406;29;20402;-67
2022/12/23 07:26:05;;;;;;;3.08;0.98;;;10.90;99.90;;;;;;4945917;29;20058;-66
2022/12/23 07:28:31;;;;;;;3.90;1.30;;;10.80;99.90;;;;;;4945011;28;20035;-68
2022/12/23 07:30:57;;;;;;;7.50;2.35;;;10.70;99.90;;;;;;4949557;28;20035;-66
2022/12/23 07:33:22;;;;;;;5.65;1.67;;;10.70;99.90;;;;;;4946655;28;20062;-69
2022/12/23 07:35:48;;;;;;;2.58;1.20;;;10.70;99.90;;;;;;4945726;28;20094;-68
2022/12/23 07:38:14;;;;;;;2.78;1.42;;;10.70;99.90;;;;;;4958983;28;20039;-65
2022/12/23 07:40:39;;;;;;;2.45;1.00;;;10.60;99.90;;;;;;4944286;28;20043;-66
2022/12/23 07:43:05;;;;;;;12.02;1.23;;;10.60;99.90;;;;;;4949741;28;20031;-66
2022/12/23 07:45:31;;;;;;;3.50;1.40;;;10.60;99.90;;;;;;4948479;28;20151;-67
2022/12/23 07:47:59;;;;;;;3.03;1.67;;;10.60;99.90;;;;;;4958161;28;20042;-67
2022/12/23 07:50:26;;;;;;;2.60;1.08;;;10.60;99.90;;;;;;4955951;28;20487;-67
2022/12/23 07:52:53;;;;;;;3.10;1.25;;;10.60;99.90;;;;;;4952027;28;20069;-68
2022/12/23 07:55:19;;;;;;;5.93;1.10;;;10.60;99.90;;;;;;4953719;28;20031;-67
2022/12/23 07:57:50;;;;;;;3.60;1.80;;;10.60;99.90;;;;;;4952881;28;20035;-67
2022/12/23 08:00:17;;;;;;;2.15;1.25;;;10.50;99.90;;;;;;4943006;28;20110;-67
2022/12/23 08:02:43;;;;;;;3.17;1.85;;;10.60;99.90;;;;;;4952569;28;20039;-65
2022/12/23 08:05:09;;;;;;;4.68;1.30;;;10.60;99.90;;;;;;4948953;28;20105;-65
2022/12/23 08:07:35;;;;;;;2.05;1.33;;;10.60;99.90;;;;;;4953354;28;20031;-65
2022/12/23 08:10:02;;;;;;;1.30;0.57;;;10.60;99.90;;;;;;4952094;28;20050;-65
2022/12/23 08:12:27;;;;;;;3.15;0.90;;;10.60;99.90;;;;;;4952497;28;20060;-64
2022/12/23 08:14:53;;;;;;;1.80;1.08;;;10.70;99.90;;;;;;4947119;28;20511;-64
2022/12/23 08:17:22;;;;;;;1.27;0.73;;;10.70;99.90;;;;;;4952671;28;20174;-64
2022/12/23 08:19:48;;;;;;;2.60;1.25;;;10.70;99.90;;;;;;4957576;28;20031;-64
2022/12/23 08:22:14;;;;;;;2.75;1.60;;;10.70;99.90;;;;;;4951137;28;20038;-64
2022/12/23 08:24:40;;;;;;;3.13;1.35;;;10.80;99.90;;;;;;4946910;28;20074;-64
2022/12/23 08:27:06;;;;;;;2.50;0.98;;;10.80;99.90;;;;;;4950412;28;20070;-64
2022/12/23 08:29:31;;;;;;;2.47;1.27;;;10.80;99.90;;;;;;4954577;28;20499;-65
2022/12/23 08:31:57;;;;;;;3.42;1.42;;;10.80;99.90;;;;;;4951805;28;20101;-65
2022/12/23 08:34:23;;;;;;;3.38;1.67;;;10.80;99.90;;;;;;4946599;28;20071;-64
2022/12/23 08:36:49;;;;;;;1.27;0.75;;;10.90;99.90;;;;;;4951895;28;20031;-64
2022/12/23 08:39:15;;;;;;;2.15;1.25;;;10.90;99.90;;;;;;4950294;29;20113;-64
2022/12/23 08:41:44;;;;;;;2.17;1.38;;;10.90;99.90;;;;;;4951843;28;20035;-65
2022/12/23 08:44:11;;;;;;;8.48;2.13;;;10.90;99.90;;;;;;4934354;29;20039;-64
2022/12/23 08:46:37;;;;;;;1.88;1.05;;;10.80;99.90;;;;;;4950438;29;20046;-65
2022/12/23 08:49:04;;;;;;;5.30;1.67;;;10.80;99.90;;;;;;4948094;28;20028;-65
2022/12/23 08:51:30;;;;;;;6.05;1.90;;;10.70;99.90;;;;;;4945919;28;20043;-65
2022/12/23 08:53:58;;;;;;;4.38;1.77;;;10.90;99.90;;;;;;4948990;28;20463;-65
2022/12/23 08:56:31;;;;;;;2.38;1.33;;;10.90;99.90;;;;;;4934252;28;65343;-66
2022/12/23 08:58:58;;;;;;;2.92;1.38;;;10.90;99.90;;;;;;4946952;28;53765;-66
2022/12/23 09:01:27;;;;;;;6.75;1.70;;;11.00;99.90;;;;;;4939113;28;56756;-65
2022/12/23 09:03:53;;;;;;;1.77;0.95;;;11.00;99.90;;;;;;4949012;29;20049;-65
2022/12/23 09:06:26;;;;;;;3.15;1.73;;;11.00;99.90;;;;;;4935378;29;20039;-66
2022/12/23 09:08:52;;;;;;;3.80;1.95;;;11.00;99.90;;;;;;4945349;28;20199;-66
2022/12/23 09:11:22;;;;;;;4.05;1.30;;;11.10;99.90;;;;;;4951944;29;20035;-66
2022/12/23 09:13:48;;;;;;;3.33;1.58;;;11.10;99.90;;;;;;4950462;28;20042;-66
2022/12/23 09:16:15;;;;;;;2.92;0.93;;;11.10;99.90;;;;;;4936481;29;20023;-66
2022/12/23 09:18:40;;;;;;;1.75;1.00;;;11.10;99.90;;;;;;4937693;29;20067;-66
2022/12/23 09:21:21;;;;;;;2.10;1.08;;;11.20;99.90;;;;;;4953893;28;20067;-66
2022/12/23 09:23:47;;;;;;;3.72;0.90;;;11.20;99.90;;;;;;4967493;28;20043;-66
2022/12/23 09:26:22;;;;;;;1.83;1.05;;;11.30;99.90;;;;;;4955477;28;20031;-66
2022/12/23 09:28:48;;;;;;;1.38;0.75;;;11.40;99.90;;;;;;4952708;29;20779;-67
2022/12/23 09:31:15;;;;;;;5.25;1.63;;;11.50;99.90;;;;;;4953769;29;20560;-65
2022/12/23 09:33:41;;;;;;;3.88;1.13;;;11.50;99.90;;;;;;4953758;28;20042;-66
2022/12/23 09:36:07;;;;;;;4.10;1.17;;;11.50;99.90;;;;;;4954333;29;20023;-67
2022/12/23 09:38:34;;;;;;;11.70;2.08;;;11.50;99.90;;;;;;4953570;28;20039;-65
2022/12/23 09:41:32;;;;;;;3.80;1.50;;;11.50;99.90;;;;;;4953459;29;20091;-67
2022/12/23 09:44:22;;;;;;;4.85;1.25;;;11.50;99.90;;;;;;4952709;29;20043;-66
2022/12/23 09:46:55;;;;;;;2.60;1.25;;;11.40;99.90;;;;;;4955475;28;20047;-67
2022/12/23 09:49:22;;;;;;;3.10;1.35;;;11.50;99.90;;;;;;4949276;28;20074;-69
2022/12/23 09:51:54;;;;;;;5.55;2.15;;;11.40;99.90;;;;;;4942604;28;20391;-67
2022/12/23 09:54:31;;;;;;;2.17;1.27;;;11.30;99.90;;;;;;4947436;29;20028;-67
2022/12/23 09:57:22;;;;;;;2.20;1.13;;;11.30;99.90;;;;;;4944453;29;20039;-67
2022/12/23 10:00:09;;;;;;;2.63;1.13;;;11.30;99.90;;;;;;4948178;28;20090;-66
2022/12/23 10:02:55;;;;;;;4.10;0.95;;;11.40;99.90;;;;;;4937666;29;20040;-67
2022/12/23 10:05:28;;;;;;;1.45;0.90;;;11.30;99.90;;;;;;4945624;28;20127;-66
2022/12/23 10:08:02;;;;;;;3.10;1.38;;;11.30;99.90;;;;;;4947525;28;20114;-66
2022/12/23 10:11:11;;;;;;;5.57;1.40;;;11.40;99.90;;;;;;4947422;28;20126;-67
2022/12/23 10:13:54;;;;;;;2.97;1.58;;;11.60;99.90;;;;;;4942506;28;20094;-65
2022/12/23 10:16:27;;;;;;;2.38;1.40;;;11.60;99.90;;;;;;4948396;29;20039;-65
2022/12/23 10:19:13;;;;;;;4.75;1.65;;;11.60;99.90;;;;;;4950159;29;20049;-66
2022/12/23 10:21:54;;;;;;;1.83;1.15;;;11.60;99.90;;;;;;4947981;28;20038;-66
2022/12/23 10:24:40;;;;;;;6.15;1.85;;;11.60;99.90;;;;;;4949787;29;20054;-66
2022/12/23 10:27:33;;;;;;;5.30;2.58;;;11.60;99.90;;;;;;4933060;28;20050;-66
2022/12/23 10:30:21;;;;;;;2.28;1.10;;;11.50;99.90;;;;;;4927128;28;20055;-67
2022/12/23 10:33:21;;;;;;;2.40;1.10;;;11.50;99.90;;;;;;4935108;29;20049;-67
2022/12/23 10:36:22;;;;;;;2.67;1.33;;;11.50;99.90;;;;;;4946177;29;20031;-67
2022/12/23 10:39:04;;;;;;;6.00;1.55;;;11.60;99.90;;;;;;4931391;29;20035;-68
2022/12/23 10:41:54;;;;;;;4.05;2.08;;;11.50;99.90;;;;;;4943819;28;20515;-67
2022/12/23 10:44:52;;;;;;;5.80;1.40;;;11.60;99.90;;;;;;4907725;28;20438;-67
2022/12/23 10:47:46;;;;;;;2.67;1.25;;;11.60;99.90;;;;;;4953717;28;20034;-67
2022/12/23 10:50:38;;;;;;;3.17;1.20;;;11.60;99.90;;;;;;4907724;28;20507;-67
2022/12/23 10:53:10;;;;;;;3.05;1.33;;;11.60;99.90;;;;;;4887587;28;176901;-67
2022/12/23 10:55:37;;;;;;;4.68;2.22;;;11.60;99.90;;;;;;4914116;29;20171;-68
2022/12/23 10:58:16;;;;;;;3.03;1.60;;;11.60;99.90;;;;;;4912458;29;20028;-67
2022/12/23 11:00:50;;;;;;;1.65;1.00;;;11.60;99.90;;;;;;4910225;28;20164;-67
2022/12/23 11:03:22;;;;;;;4.45;1.55;;;11.60;99.90;;;;;;4902830;29;20036;-67
2022/12/23 11:05:51;;;;;;;2.58;1.30;;;11.60;99.90;;;;;;4929514;28;20112;-68
2022/12/23 11:08:22;;;;;;;4.05;1.35;;;11.60;99.90;;;;;;4915744;28;20039;-67
2022/12/23 11:10:48;;;;;;;1.73;1.08;;;11.60;99.90;;;;;;4948754;29;20122;-67
2022/12/23 11:13:37;;;;;;;2.40;1.50;;;11.60;99.90;;;;;;4915502;29;20155;-67
2022/12/23 11:16:27;;;;;;;3.70;1.60;;;11.60;99.90;;;;;;4923926;29;20043;-67
2022/12/23 11:19:14;;;;;;;1.58;0.85;;;11.70;99.90;;;;;;4924363;29;20460;-67
2022/12/23 11:21:57;;;;;;;1.70;0.80;;;11.90;99.90;;;;;;4938899;29;20083;-67
2022/12/23 11:24:27;;;;;;;0.75;0.47;;;11.90;99.90;;;;;;4925116;29;20404;-67
2022/12/23 11:27:06;;;;;;;0.88;0.40;;;11.90;99.90;;;;;;4933183;29;20492;-67
2022/12/23 11:29:38;;;;;;;2.33;0.65;;;11.90;99.90;;;;;;4930457;29;20108;-68
2022/12/23 11:32:26;;;;;;;0.95;0.70;;;12.00;99.90;;;;;;4931840;29;20036;-67
2022/12/23 11:34:54;;;;;;;1.05;0.70;;;11.90;99.90;;;;;;4928880;29;20042;-69
2022/12/23 11:37:36;;;;;;;2.25;1.05;;;11.90;99.90;;;;;;4916992;29;20082;-70
2022/12/23 11:40:35;;;;;;;1.08;0.90;;;11.90;99.90;;;;;;4931278;29;20043;-70
2022/12/23 11:43:06;;;;;;;0.88;0.70;;;11.90;99.90;;;;;;4927780;29;20044;-72
2022/12/23 11:45:36;;;;;;;7.35;1.20;;;11.90;99.90;;;;;;4932239;29;20043;-72
2022/12/23 11:48:25;;;;;;;0.68;0.55;;;11.80;99.90;;;;;;4932746;29;20420;-73
2022/12/23 11:51:00;;;;;;;0.93;0.73;;;11.80;99.90;;;;;;4934134;29;20093;-73
2022/12/23 11:53:26;;;;;;;2.50;1.38;;;11.80;99.90;;;;;;4948315;29;20520;-73
2022/12/23 11:56:12;;;;;;;3.80;1.08;;;11.80;99.90;;;;;;4922289;29;20028;-71
2022/12/23 11:58:47;;;;;;;1.88;1.08;;;11.80;99.90;;;;;;4902802;29;20051;-71
2022/12/23 12:01:23;;;;;;;5.70;0.98;;;11.80;99.90;;;;;;4928552;29;20032;-69
2022/12/23 12:03:59;;;;;;;10.05;1.50;;;11.80;99.90;;;;;;4927408;29;20036;-69
2022/12/23 12:06:25;;;;;;;0.98;0.57;;;11.80;99.90;;;;;;4888820;28;20047;-70
2022/12/23 12:08:55;;;;;;;1.42;0.88;;;11.80;99.90;;;;;;4913684;29;20028;-69
2022/12/23 12:11:38;;;;;;;2.22;0.70;;;11.70;99.90;;;;;;4912699;29;20524;-69
2022/12/23 12:14:07;;;;;;;1.58;0.98;;;11.70;99.90;;;;;;4909870;29;20528;-69
2022/12/23 12:17:14;;;;;;;1.02;0.70;;;11.70;99.90;;;;;;4909104;29;20118;-69
2022/12/23 12:19:59;;;;;;;6.05;0.93;;;11.70;99.90;;;;;;4913621;29;20111;-69
2022/12/23 12:22:43;;;;;;;2.63;1.90;;;11.70;99.90;;;;;;4928868;29;20032;-69
2022/12/23 12:25:28;;;;;;;5.43;1.35;;;11.60;99.90;;;;;;4912777;29;20042;-69
2022/12/23 12:28:01;;;;;;;4.63;2.08;;;11.70;99.90;;;;;;4906839;29;20036;-69
2022/12/23 12:30:40;;;;;;;2.58;1.70;;;11.60;99.90;;;;;;4908267;29;20092;-68
2022/12/23 12:33:25;;;;;;;3.08;1.38;;;11.70;99.90;;;;;;4913229;29;20028;-68
2022/12/23 12:36:19;;;;;;;2.97;1.63;;;11.70;99.90;;;;;;4912635;29;20036;-68
2022/12/23 12:38:48;;;;;;;3.13;2.08;;;11.70;99.90;;;;;;4913290;29;20027;-68
2022/12/23 12:41:55;;;;;;;1.98;1.27;;;11.60;99.90;;;;;;4907722;29;20047;-68
2022/12/23 12:44:51;;;;;;;3.95;1.95;;;11.70;99.90;;;;;;4910452;29;20040;-68
2022/12/23 12:47:30;;;;;;;4.47;2.08;;;11.60;99.90;;;;;;4905443;29;20075;-68
2022/12/23 12:50:01;;;;;;;3.42;1.50;;;11.70;99.90;;;;;;4911771;29;20043;-68
2022/12/23 12:52:35;;;;;;;2.33;1.35;;;11.70;99.90;;;;;;4919335;29;20700;-69
2022/12/23 12:55:24;;;;;;;2.20;1.40;;;11.70;99.90;;;;;;4912103;29;20075;-68
2022/12/23 12:57:50;;;;;;;2.35;1.30;;;11.70;99.90;;;;;;4907099;29;20038;-67
2022/12/23 13:00:19;;;;;;;1.60;1.05;;;11.70;99.90;;;;;;4913118;29;20036;-67
2022/12/23 13:03:18;;;;;;;3.55;1.55;;;11.80;99.90;;;;;;4908382;29;20124;-68
2022/12/23 13:06:41;;;;;;;3.30;1.50;;;11.70;99.90;;;;;;4913129;29;20518;-68
2022/12/23 13:09:19;;;;;;;3.20;1.33;;;11.80;99.90;;;;;;4890069;29;20169;-68
2022/12/23 13:12:00;;;;;;;2.65;1.65;;;11.80;99.90;;;;;;4907481;29;20071;-68
2022/12/23 13:14:56;;;;;;;3.10;1.13;;;11.80;99.90;;;;;;4897432;29;20036;-67
2022/12/23 13:17:38;;;;;;;2.60;1.40;;;11.80;99.90;;;;;;4906857;29;20068;-68
2022/12/23 13:20:35;;;;;;;1.67;1.27;;;11.80;99.90;;;;;;4903743;29;20048;-68
2022/12/23 13:23:14;;;;;;;3.42;1.60;;;11.70;99.90;;;;;;4923669;28;20047;-67
2022/12/23 13:25:53;;;;;;;5.43;1.42;;;11.80;99.90;;;;;;4939466;23;20475;-65
2022/12/23 13:28:31;;;;;;;2.70;1.50;;;11.80;99.90;;;;;;4955549;28;20170;-65
2022/12/23 13:31:30;;;;;;;3.10;1.65;;;11.80;99.90;;;;;;4958469;28;20058;-66
2022/12/23 13:34:32;;;;;;;3.08;1.58;;;11.70;99.90;;;;;;4957974;28;20038;-67
2022/12/23 13:37:38;;;;;;;6.47;2.08;;;11.90;99.90;;;;;;4927380;29;20808;-66
2022/12/23 13:40:37;;;;;;;3.40;1.55;;;11.90;99.90;;;;;;4933174;29;20055;-67
2022/12/23 13:43:13;;;;;;;2.22;1.30;;;11.90;99.90;;;;;;4936048;29;20118;-68
2022/12/23 13:45:40;;;;;;;1.50;0.98;;;12.00;99.90;;;;;;4934266;29;20050;-68
2022/12/23 13:48:42;;;;;;;4.18;1.52;;;12.00;99.90;;;;;;4934460;29;20031;-67
2022/12/23 13:51:39;;;;;;;4.72;1.60;;;12.00;99.90;;;;;;4927725;28;20043;-68
2022/12/23 13:54:07;;;;;;;2.10;1.10;;;12.10;99.90;;;;;;4922822;29;20070;-67
2022/12/23 13:56:43;;;;;;;6.03;1.58;;;12.10;99.90;;;;;;4935555;29;20039;-67
2022/12/23 13:59:11;;;;;;;3.00;1.38;;;12.10;99.90;;;;;;4934193;29;20036;-68